createdAt,value
2018-11-03T00:00:08.471Z,19.26
2018-11-03T00:01:08.423Z,19.23
2018-11-03T00:02:08.379Z,19.26
2018-11-03T00:03:08.328Z,19.29
2018-11-03T00:04:08.284Z,19.29
2018-11-03T00:05:08.231Z,19.23
2018-11-03T00:06:08.185Z,19.28
2018-11-03T00:07:08.135Z,19.25
2018-11-03T00:08:08.089Z,19.28
2018-11-03T00:09:08.041Z,19.28
2018-11-03T00:10:07.994Z,19.26
2018-11-03T00:11:07.945Z,19.31
2018-11-03T00:12:07.898Z,19.33
2018-11-03T00:13:07.851Z,19.28
2018-11-03T00:14:07.802Z,19.33
2018-11-03T00:15:07.754Z,19.29
2018-11-03T00:16:07.707Z,19.28
2018-11-03T00:17:07.660Z,19.23
2018-11-03T00:18:07.612Z,19.18
2018-11-03T00:19:07.568Z,19.23
2018-11-03T00:20:07.520Z,19.29
2018-11-03T00:21:07.467Z,19.31
2018-11-03T00:22:07.421Z,19.19
2018-11-03T00:23:07.373Z,19.26
2018-11-03T00:24:07.325Z,19.31
2018-11-03T00:25:07.281Z,19.23
2018-11-03T00:26:07.230Z,19.29
2018-11-03T00:27:07.185Z,19.31
2018-11-03T00:28:07.134Z,19.28
2018-11-03T00:29:07.088Z,19.29
2018-11-03T00:30:07.040Z,19.28
2018-11-03T00:31:06.992Z,19.28
2018-11-03T00:32:06.945Z,19.22
2018-11-03T00:33:06.896Z,19.23
2018-11-03T00:34:06.849Z,19.14
2018-11-03T00:35:06.803Z,19.23
2018-11-03T00:36:06.752Z,19.22
2018-11-03T00:37:06.706Z,19.28
2018-11-03T00:38:06.658Z,19.28
2018-11-03T00:39:06.609Z,19.22
2018-11-03T00:40:06.562Z,19.29
2018-11-03T00:41:06.514Z,19.23
2018-11-03T00:42:06.467Z,19.31
2018-11-03T00:43:06.422Z,19.28
2018-11-03T00:44:06.371Z,19.31
2018-11-03T00:45:06.324Z,19.26
2018-11-03T00:46:06.276Z,19.22
2018-11-03T00:47:06.228Z,19.19
2018-11-03T00:48:06.180Z,19.28
2018-11-03T00:49:06.133Z,19.23
2018-11-03T00:50:06.085Z,19.29
2018-11-03T00:51:06.036Z,19.28
2018-11-03T00:52:05.989Z,19.23
2018-11-03T00:53:05.977Z,19.26
2018-11-03T00:54:05.894Z,19.16
2018-11-03T00:55:05.846Z,19.26
2018-11-03T00:56:05.798Z,19.16
2018-11-03T00:57:05.752Z,19.29
2018-11-03T00:58:05.710Z,19.26
2018-11-03T00:59:05.655Z,19.25
2018-11-03T01:00:05.607Z,19.21
2018-11-03T01:01:05.560Z,19.28
2018-11-03T01:02:05.513Z,19.22
2018-11-03T01:03:05.466Z,19.19
2018-11-03T01:04:05.416Z,19.14
2018-11-03T01:05:05.368Z,19.25
2018-11-03T01:06:05.321Z,19.18
2018-11-03T01:07:05.273Z,19.26
2018-11-03T01:08:05.227Z,19.28
2018-11-03T01:09:05.178Z,19.25
2018-11-03T01:10:05.133Z,19.26
2018-11-03T01:11:05.084Z,19.25
2018-11-03T01:12:05.034Z,19.28
2018-11-03T01:13:04.987Z,19.26
2018-11-03T01:14:04.991Z,19.25
2018-11-03T01:15:04.906Z,19.22
2018-11-03T01:16:04.843Z,19.29
2018-11-03T01:17:04.796Z,19.23
2018-11-03T01:18:04.750Z,19.22
2018-11-03T01:19:04.700Z,19.23
2018-11-03T01:20:04.652Z,19.29
2018-11-03T01:21:04.605Z,19.31
2018-11-03T01:22:04.559Z,19.23
2018-11-03T01:23:04.509Z,19.22
2018-11-03T01:24:04.469Z,19.21
2018-11-03T01:25:04.414Z,19.28
2018-11-03T01:26:04.373Z,19.23
2018-11-03T01:27:04.319Z,19.29
2018-11-03T01:28:04.273Z,19.29
2018-11-03T01:29:04.226Z,19.29
2018-11-03T01:30:04.184Z,19.22
2018-11-03T01:31:04.133Z,19.28
2018-11-03T01:32:04.080Z,19.28
2018-11-03T01:33:04.034Z,19.19
2018-11-03T01:34:03.987Z,19.18
2018-11-03T01:35:03.936Z,19.28
2018-11-03T01:36:03.889Z,19.28
2018-11-03T01:37:03.842Z,19.29
2018-11-03T01:38:03.794Z,19.31
2018-11-03T01:39:03.745Z,19.26
2018-11-03T01:40:03.698Z,19.14
2018-11-03T01:41:03.651Z,19.29
2018-11-03T01:42:03.603Z,19.26
2018-11-03T01:43:03.555Z,19.29
2018-11-03T01:44:03.508Z,19.19
2018-11-03T01:45:03.499Z,19.31
2018-11-03T01:46:03.412Z,19.31
2018-11-03T01:47:03.363Z,19.28
2018-11-03T01:48:03.316Z,19.16
2018-11-03T01:49:03.268Z,19.26
2018-11-03T01:50:03.222Z,19.21
2018-11-03T01:51:03.173Z,19.14
2018-11-03T01:52:03.125Z,19.29
2018-11-03T01:53:03.078Z,19.28
2018-11-03T01:54:03.058Z,19.14
2018-11-03T01:55:02.983Z,19.28
2018-11-03T01:56:02.935Z,19.31
2018-11-03T01:57:02.892Z,19.26
2018-11-03T01:58:02.840Z,19.14
2018-11-03T01:59:02.794Z,19.19
2018-11-03T02:00:02.745Z,19.28
2018-11-03T02:01:02.696Z,19.31
2018-11-03T02:02:02.652Z,19.26
2018-11-03T02:03:02.601Z,19.23
2018-11-03T02:04:02.553Z,19.28
2018-11-03T02:05:02.510Z,19.22
2018-11-03T02:06:02.458Z,19.19
2018-11-03T02:07:02.725Z,19.16
2018-11-03T02:08:02.362Z,19.29
2018-11-03T02:09:02.635Z,19.21
2018-11-03T02:10:02.584Z,19.26
2018-11-03T02:11:02.219Z,19.28
2018-11-03T02:12:02.172Z,19.16
2018-11-03T02:13:02.124Z,19.32
2018-11-03T02:14:02.077Z,19.19
2018-11-03T02:15:02.028Z,19.26
2018-11-03T02:16:01.980Z,19.19
2018-11-03T02:17:01.933Z,19.14
2018-11-03T02:18:01.886Z,19.31
2018-11-03T02:19:01.841Z,19.19
2018-11-03T02:20:01.790Z,19.28
2018-11-03T02:21:01.743Z,19.28
2018-11-03T02:22:01.695Z,19.16
2018-11-03T02:23:01.646Z,19.14
2018-11-03T02:24:01.600Z,19.26
2018-11-03T02:25:01.652Z,19.26
2018-11-03T02:26:01.503Z,19.31
2018-11-03T02:27:01.455Z,19.19
2018-11-03T02:28:01.409Z,19.32
2018-11-03T02:29:01.360Z,19.14
2018-11-03T02:30:01.312Z,19.29
2018-11-03T02:31:01.270Z,19.28
2018-11-03T02:32:01.217Z,19.19
2018-11-03T02:33:01.171Z,19.26
2018-11-03T02:34:01.122Z,19.28
2018-11-03T02:35:01.073Z,19.19
2018-11-03T02:36:01.025Z,19.16
2018-11-03T02:37:01.028Z,19.18
2018-11-03T02:38:00.931Z,19.29
2018-11-03T02:39:00.883Z,19.11
2018-11-03T02:40:00.837Z,19.18
2018-11-03T02:41:00.819Z,19.28
2018-11-03T02:42:00.740Z,19.16
2018-11-03T02:43:00.692Z,19.26
2018-11-03T02:44:00.644Z,19.16
2018-11-03T02:45:00.598Z,19.14
2018-11-03T02:46:00.549Z,19.19
2018-11-03T02:47:00.500Z,19.19
2018-11-03T02:48:00.503Z,19.19
2018-11-03T02:49:00.405Z,19.14
2018-11-03T02:50:00.358Z,19.19
2018-11-03T02:51:00.309Z,19.28
2018-11-03T02:52:00.262Z,19.19
2018-11-03T02:53:00.252Z,19.14
2018-11-03T02:54:00.167Z,19.16
2018-11-03T02:55:00.168Z,19.26
2018-11-03T02:56:00.071Z,19.21
2018-11-03T02:57:00.026Z,19.16
2018-11-03T02:57:59.976Z,19.22
2018-11-03T02:58:59.940Z,19.22
2018-11-03T02:59:59.887Z,19.28
2018-11-03T03:00:59.832Z,19.14
2018-11-03T03:01:59.785Z,19.23
2018-11-03T03:02:59.736Z,19.16
2018-11-03T03:03:59.689Z,19.16
2018-11-03T03:04:59.641Z,19.14
2018-11-03T03:05:59.594Z,19.32
2018-11-03T03:06:59.583Z,19.16
2018-11-03T03:07:59.497Z,19.14
2018-11-03T03:08:59.450Z,19.19
2018-11-03T03:09:59.403Z,19.22
2018-11-03T03:10:59.385Z,19.31
2018-11-03T03:11:59.307Z,19.26
2018-11-03T03:12:59.259Z,19.25
2018-11-03T03:13:59.212Z,19.14
2018-11-03T03:14:59.163Z,19.13
2018-11-03T03:15:59.115Z,19.26
2018-11-03T03:16:59.073Z,19.18
2018-11-03T03:17:59.021Z,19.16
2018-11-03T03:18:58.973Z,19.23
2018-11-03T03:19:58.924Z,19.14
2018-11-03T03:20:58.877Z,19.22
2018-11-03T03:21:58.830Z,19.22
2018-11-03T03:22:58.781Z,19.21
2018-11-03T03:23:58.734Z,19.22
2018-11-03T03:24:58.687Z,19.11
2018-11-03T03:25:58.641Z,19.26
2018-11-03T03:26:58.590Z,19.22
2018-11-03T03:27:58.543Z,19.25
2018-11-03T03:28:58.557Z,19.11
2018-11-03T03:29:58.448Z,19.14
2018-11-03T03:30:58.401Z,19.14
2018-11-03T03:31:58.352Z,19.23
2018-11-03T03:32:58.304Z,19.21
2018-11-03T03:33:58.259Z,19.26
2018-11-03T03:34:58.259Z,19.18
2018-11-03T03:35:58.161Z,19.26
2018-11-03T03:36:58.116Z,19.18
2018-11-03T03:37:58.067Z,19.21
2018-11-03T03:38:58.017Z,19.29
2018-11-03T03:39:57.970Z,19.21
2018-11-03T03:40:57.923Z,19.19
2018-11-03T03:41:57.891Z,19.14
2018-11-03T03:42:57.826Z,19.16
2018-11-03T03:43:57.779Z,19.18
2018-11-03T03:44:57.732Z,19.21
2018-11-03T03:45:57.684Z,19.21
2018-11-03T03:46:57.638Z,19.25
2018-11-03T03:47:57.588Z,19.19
2018-11-03T03:48:57.541Z,19.19
2018-11-03T03:49:57.493Z,19.25
2018-11-03T03:50:57.454Z,19.16
2018-11-03T03:51:57.397Z,19.18
2018-11-03T03:52:57.350Z,19.11
2018-11-03T03:53:57.304Z,19.16
2018-11-03T03:54:57.253Z,19.26
2018-11-03T03:55:57.222Z,19.18
2018-11-03T03:56:57.361Z,19.22
2018-11-03T03:57:57.111Z,19.22
2018-11-03T03:58:57.063Z,19.18
2018-11-03T03:59:57.015Z,19.22
2018-11-03T04:00:56.968Z,19.26
2018-11-03T04:01:56.920Z,19.22
2018-11-03T04:02:56.874Z,19.21
2018-11-03T04:03:56.831Z,19.23
2018-11-03T04:04:56.777Z,19.16
2018-11-03T04:05:56.733Z,19.25
2018-11-03T04:06:56.686Z,19.21
2018-11-03T04:07:56.641Z,19.28
2018-11-03T04:08:56.586Z,19.26
2018-11-03T04:09:56.538Z,19.19
2018-11-03T04:10:56.490Z,19.19
2018-11-03T04:11:56.451Z,19.22
2018-11-03T04:12:56.395Z,19.19
2018-11-03T04:13:56.447Z,19.25
2018-11-03T04:14:56.299Z,19.16
2018-11-03T04:15:56.252Z,19.26
2018-11-03T04:16:56.212Z,19.21
2018-11-03T04:17:56.157Z,19.21
2018-11-03T04:18:56.150Z,19.21
2018-11-03T04:19:56.060Z,19.26
2018-11-03T04:20:56.014Z,19.21
2018-11-03T04:21:55.965Z,19.22
2018-11-03T04:22:55.917Z,19.22
2018-11-03T04:23:55.869Z,19.22
2018-11-03T04:24:55.822Z,19.21
2018-11-03T04:25:55.825Z,19.19
2018-11-03T04:26:55.726Z,19.22
2018-11-03T04:27:55.678Z,19.14
2018-11-03T04:28:55.630Z,19.25
2018-11-03T04:29:55.589Z,19.16
2018-11-03T04:30:55.535Z,19.18
2018-11-03T04:31:55.487Z,19.19
2018-11-03T04:32:55.440Z,19.22
2018-11-03T04:33:55.392Z,19.19
2018-11-03T04:34:55.345Z,19.14
2018-11-03T04:35:55.296Z,19.22
2018-11-03T04:36:55.249Z,19.19
2018-11-03T04:37:55.259Z,19.11
2018-11-03T04:38:55.153Z,19.25
2018-11-03T04:39:55.105Z,19.19
2018-11-03T04:40:55.058Z,19.23
2018-11-03T04:41:55.010Z,19.22
2018-11-03T04:42:54.966Z,19.25
2018-11-03T04:43:54.916Z,19.23
2018-11-03T04:44:54.866Z,19.22
2018-11-03T04:45:54.820Z,19.25
2018-11-03T04:46:54.771Z,19.25
2018-11-03T04:47:54.723Z,19.25
2018-11-03T04:48:54.677Z,19.26
2018-11-03T04:49:54.628Z,19.13
2018-11-03T04:50:54.597Z,19.26
2018-11-03T04:51:54.535Z,19.14
2018-11-03T04:52:54.488Z,19.23
2018-11-03T04:53:54.437Z,19.28
2018-11-03T04:54:54.421Z,19.21
2018-11-03T04:55:54.341Z,19.14
2018-11-03T04:56:54.301Z,19.22
2018-11-03T04:57:54.247Z,19.28
2018-11-03T04:58:54.197Z,19.22
2018-11-03T04:59:54.150Z,19.21
2018-11-03T05:00:54.102Z,19.19
2018-11-03T05:01:54.055Z,19.18
2018-11-03T05:02:54.006Z,19.21
2018-11-03T05:03:53.959Z,19.23
2018-11-03T05:04:53.912Z,19.19
2018-11-03T05:05:53.864Z,19.22
2018-11-03T05:06:53.842Z,19.14
2018-11-03T05:07:53.767Z,19.26
2018-11-03T05:08:53.720Z,19.16
2018-11-03T05:09:53.776Z,19.18
2018-11-03T05:10:53.624Z,19.21
2018-11-03T05:11:53.577Z,19.19
2018-11-03T05:12:53.529Z,19.22
2018-11-03T05:13:53.482Z,19.26
2018-11-03T05:14:53.433Z,19.22
2018-11-03T05:15:53.385Z,19.21
2018-11-03T05:16:53.338Z,19.19
2018-11-03T05:17:53.321Z,19.16
2018-11-03T05:18:53.245Z,19.19
2018-11-03T05:19:53.194Z,19.29
2018-11-03T05:20:53.147Z,19.25
2018-11-03T05:21:53.115Z,19.18
2018-11-03T05:22:53.051Z,19.26
2018-11-03T05:23:53.004Z,19.26
2018-11-03T05:24:52.956Z,19.19
2018-11-03T05:25:52.910Z,19.19
2018-11-03T05:26:52.860Z,19.22
2018-11-03T05:27:52.834Z,19.18
2018-11-03T05:28:52.767Z,19.25
2018-11-03T05:29:52.719Z,19.23
2018-11-03T05:30:52.677Z,19.23
2018-11-03T05:31:52.621Z,19.28
2018-11-03T05:32:52.574Z,19.19
2018-11-03T05:33:52.525Z,19.21
2018-11-03T05:34:52.477Z,19.22
2018-11-03T05:35:52.429Z,19.21
2018-11-03T05:36:52.383Z,19.14
2018-11-03T05:37:52.485Z,19.16
2018-11-03T05:38:52.289Z,19.28
2018-11-03T05:39:52.239Z,19.25
2018-11-03T05:40:52.191Z,19.21
2018-11-03T05:41:52.143Z,19.16
2018-11-03T05:42:52.101Z,19.25
2018-11-03T05:43:52.047Z,19.19
2018-11-03T05:44:52.031Z,19.19
2018-11-03T05:45:51.952Z,19.19
2018-11-03T05:46:51.904Z,19.18
2018-11-03T05:47:51.856Z,19.18
2018-11-03T05:48:51.808Z,19.28
2018-11-03T05:49:51.761Z,19.21
2018-11-03T05:50:51.713Z,19.22
2018-11-03T05:51:51.666Z,19.23
2018-11-03T05:52:51.617Z,19.21
2018-11-03T05:53:51.570Z,19.18
2018-11-03T05:54:51.521Z,19.19
2018-11-03T05:55:51.478Z,19.26
2018-11-03T05:56:51.451Z,19.16
2018-11-03T05:57:51.379Z,19.23
2018-11-03T05:58:51.354Z,19.18
2018-11-03T05:59:51.285Z,19.28
2018-11-03T06:00:51.236Z,19.18
2018-11-03T06:01:51.189Z,19.16
2018-11-03T06:02:51.139Z,19.26
2018-11-03T06:03:51.092Z,19.18
2018-11-03T06:04:51.044Z,19.18
2018-11-03T06:05:50.997Z,19.22
2018-11-03T06:06:50.949Z,19.21
2018-11-03T06:07:50.901Z,19.29
2018-11-03T06:08:50.933Z,19.16
2018-11-03T06:09:50.812Z,19.28
2018-11-03T06:10:50.757Z,19.18
2018-11-03T06:11:50.710Z,19.19
2018-11-03T06:12:50.684Z,19.21
2018-11-03T06:13:50.621Z,19.22
2018-11-03T06:14:50.566Z,19.19
2018-11-03T06:15:50.518Z,19.19
2018-11-03T06:16:50.470Z,19.22
2018-11-03T06:17:50.423Z,19.25
2018-11-03T06:18:50.375Z,19.19
2018-11-03T06:19:50.327Z,19.19
2018-11-03T06:20:50.287Z,19.23
2018-11-03T06:21:50.233Z,19.26
2018-11-03T06:22:50.192Z,19.22
2018-11-03T06:23:50.137Z,19.19
2018-11-03T06:24:50.089Z,19.26
2018-11-03T06:25:50.046Z,19.19
2018-11-03T06:26:49.993Z,19.19
2018-11-03T06:27:50.028Z,19.18
2018-11-03T06:28:49.902Z,19.23
2018-11-03T06:29:49.849Z,19.25
2018-11-03T06:30:49.801Z,19.26
2018-11-03T06:31:49.753Z,19.18
2018-11-03T06:32:49.706Z,19.14
2018-11-03T06:33:49.658Z,19.23
2018-11-03T06:34:49.610Z,19.25
2018-11-03T06:35:49.563Z,19.23
2018-11-03T06:36:49.515Z,19.19
2018-11-03T06:37:49.467Z,19.23
2018-11-03T06:38:49.439Z,19.26
2018-11-03T06:39:49.372Z,19.28
2018-11-03T06:40:49.324Z,19.21
2018-11-03T06:41:49.276Z,19.18
2018-11-03T06:42:49.228Z,19.26
2018-11-03T06:43:49.180Z,19.28
2018-11-03T06:44:49.133Z,19.22
2018-11-03T06:45:49.085Z,19.18
2018-11-03T06:46:49.038Z,19.19
2018-11-03T06:47:48.989Z,19.22
2018-11-03T06:48:48.943Z,19.18
2018-11-03T06:49:48.894Z,19.16
2018-11-03T06:50:48.845Z,19.25
2018-11-03T06:51:48.797Z,19.29
2018-11-03T06:52:48.750Z,19.26
2018-11-03T06:53:48.702Z,19.23
2018-11-03T06:54:48.655Z,19.14
2018-11-03T06:55:48.606Z,19.13
2018-11-03T06:56:48.559Z,19.16
2018-11-03T06:57:48.513Z,19.16
2018-11-03T06:58:48.463Z,19.18
2018-11-03T06:59:48.415Z,19.16
2018-11-03T07:00:48.368Z,19.19
2018-11-03T07:01:48.637Z,19.21
2018-11-03T07:02:48.322Z,19.14
2018-11-03T07:03:48.224Z,19.28
2018-11-03T07:04:48.177Z,19.22
2018-11-03T07:05:48.129Z,19.26
2018-11-03T07:06:48.131Z,19.16
2018-11-03T07:07:48.033Z,19.21
2018-11-03T07:08:47.986Z,19.14
2018-11-03T07:09:47.938Z,19.14
2018-11-03T07:10:47.893Z,19.23
2018-11-03T07:11:47.859Z,19.13
2018-11-03T07:12:47.824Z,19.25
2018-11-03T07:13:47.747Z,19.28
2018-11-03T07:14:47.699Z,19.14
2018-11-03T07:15:47.652Z,19.21
2018-11-03T07:16:47.609Z,19.19
2018-11-03T07:17:47.556Z,19.14
2018-11-03T07:18:47.508Z,19.22
2018-11-03T07:19:47.460Z,19.19
2018-11-03T07:20:47.413Z,19.19
2018-11-03T07:21:47.396Z,19.21
2018-11-03T07:22:47.317Z,19.18
2018-11-03T07:23:47.269Z,19.16
2018-11-03T07:24:47.222Z,19.31
2018-11-03T07:25:47.175Z,19.31
2018-11-03T07:26:47.126Z,19.14
2018-11-03T07:27:47.078Z,19.23
2018-11-03T07:28:47.032Z,19.26
2018-11-03T07:29:47.091Z,19.26
2018-11-03T07:30:46.935Z,19.22
2018-11-03T07:31:46.890Z,19.26
2018-11-03T07:32:46.840Z,19.29
2018-11-03T07:33:46.796Z,19.19
2018-11-03T07:34:46.744Z,19.22
2018-11-03T07:35:46.710Z,19.22
2018-11-03T07:36:46.653Z,19.25
2018-11-03T07:37:46.601Z,19.16
2018-11-03T07:38:46.555Z,19.23
2018-11-03T07:39:46.505Z,19.28
2018-11-03T07:40:46.530Z,19.28
2018-11-03T07:41:46.411Z,19.26
2018-11-03T07:42:46.397Z,19.29
2018-11-03T07:43:46.315Z,19.33
2018-11-03T07:44:46.267Z,19.31
2018-11-03T07:45:46.220Z,19.28
2018-11-03T07:46:46.172Z,19.26
2018-11-03T07:47:46.147Z,19.28
2018-11-03T07:48:46.243Z,19.31
2018-11-03T07:49:46.029Z,19.25
2018-11-03T07:50:45.981Z,19.29
2018-11-03T07:51:45.933Z,19.28
2018-11-03T07:52:45.887Z,19.28
2018-11-03T07:53:45.838Z,19.28
2018-11-03T07:54:45.883Z,19.28
2018-11-03T07:55:45.743Z,19.26
2018-11-03T07:56:45.695Z,19.32
2018-11-03T07:57:45.672Z,19.28
2018-11-03T07:58:45.600Z,19.26
2018-11-03T07:59:45.583Z,19.31
2018-11-03T08:00:45.698Z,19.28
2018-11-03T08:01:45.457Z,19.29
2018-11-03T08:02:45.408Z,19.32
2018-11-03T08:03:45.361Z,19.31
2018-11-03T08:04:45.316Z,19.28
2018-11-03T08:05:45.266Z,19.32
2018-11-03T08:06:45.217Z,19.26
2018-11-03T08:07:45.170Z,19.31
2018-11-03T08:08:45.127Z,19.31
2018-11-03T08:09:45.117Z,19.33
2018-11-03T08:10:45.027Z,19.28
2018-11-03T08:11:44.986Z,19.32
2018-11-03T08:12:44.943Z,19.28
2018-11-03T08:13:44.885Z,19.28
2018-11-03T08:14:44.836Z,19.32
2018-11-03T08:15:44.809Z,19.29
2018-11-03T08:16:44.742Z,19.33
2018-11-03T08:17:44.694Z,19.23
2018-11-03T08:18:44.646Z,19.28
2018-11-03T08:19:44.598Z,19.25
2018-11-03T08:20:44.551Z,19.29
2018-11-03T08:21:44.503Z,19.32
2018-11-03T08:22:44.455Z,19.28
2018-11-03T08:23:44.425Z,19.23
2018-11-03T08:24:44.361Z,19.28
2018-11-03T08:25:44.313Z,19.23
2018-11-03T08:26:44.286Z,19.32
2018-11-03T08:27:44.219Z,19.32
2018-11-03T08:28:44.170Z,19.23
2018-11-03T08:29:44.123Z,19.36
2018-11-03T08:30:44.075Z,19.28
2018-11-03T08:31:44.148Z,19.33
2018-11-03T08:32:43.979Z,19.28
2018-11-03T08:33:43.933Z,19.25
2018-11-03T08:34:43.885Z,19.28
2018-11-03T08:35:43.836Z,19.28
2018-11-03T08:36:43.789Z,19.39
2018-11-03T08:37:43.743Z,19.25
2018-11-03T08:38:43.693Z,19.37
2018-11-03T08:39:43.815Z,19.39
2018-11-03T08:40:43.598Z,19.37
2018-11-03T08:41:43.554Z,19.37
2018-11-03T08:42:43.503Z,19.28
2018-11-03T08:43:43.455Z,19.28
2018-11-03T08:44:43.408Z,19.28
2018-11-03T08:45:43.360Z,19.29
2018-11-03T08:46:43.312Z,19.37
2018-11-03T08:47:43.265Z,19.36
2018-11-03T08:48:43.302Z,19.33
2018-11-03T08:49:43.170Z,19.33
2018-11-03T08:50:43.122Z,19.37
2018-11-03T08:51:43.075Z,19.39
2018-11-03T08:52:43.028Z,19.36
2018-11-03T08:53:42.980Z,19.31
2018-11-03T08:54:42.937Z,19.40
2018-11-03T08:55:42.890Z,19.33
2018-11-03T08:56:42.837Z,19.31
2018-11-03T08:57:42.790Z,19.36
2018-11-03T08:58:42.742Z,19.26
2018-11-03T08:59:42.835Z,19.33
2018-11-03T09:00:42.647Z,19.44
2018-11-03T09:01:42.600Z,19.33
2018-11-03T09:02:42.551Z,19.44
2018-11-03T09:03:42.506Z,19.44
2018-11-03T09:04:42.457Z,19.47
2018-11-03T09:05:42.410Z,19.40
2018-11-03T09:06:42.455Z,19.44
2018-11-03T09:07:42.314Z,19.44
2018-11-03T09:08:42.266Z,19.43
2018-11-03T09:09:42.220Z,19.46
2018-11-03T09:10:42.173Z,19.44
2018-11-03T09:11:42.124Z,19.44
2018-11-03T09:12:42.077Z,19.48
2018-11-03T09:13:42.079Z,19.43
2018-11-03T09:14:42.018Z,19.48
2018-11-03T09:15:41.940Z,19.48
2018-11-03T09:16:41.887Z,19.43
2018-11-03T09:17:41.840Z,19.41
2018-11-03T09:18:41.792Z,19.46
2018-11-03T09:19:41.744Z,19.44
2018-11-03T09:20:41.711Z,19.41
2018-11-03T09:21:41.696Z,19.48
2018-11-03T09:22:41.656Z,19.43
2018-11-03T09:23:41.555Z,19.46
2018-11-03T09:24:41.508Z,19.41
2018-11-03T09:25:41.480Z,19.43
2018-11-03T09:26:41.413Z,19.44
2018-11-03T09:27:41.367Z,19.40
2018-11-03T09:28:41.318Z,19.44
2018-11-03T09:29:41.272Z,19.48
2018-11-03T09:30:41.223Z,19.43
2018-11-03T09:31:41.179Z,19.44
2018-11-03T09:32:41.137Z,19.47
2018-11-03T09:33:41.081Z,19.50
2018-11-03T09:34:41.147Z,19.43
2018-11-03T09:35:40.985Z,19.50
2018-11-03T09:36:40.942Z,19.41
2018-11-03T09:37:40.891Z,19.46
2018-11-03T09:38:40.972Z,19.37
2018-11-03T09:39:40.812Z,19.48
2018-11-03T09:40:40.749Z,19.48
2018-11-03T09:41:40.701Z,19.46
2018-11-03T09:42:40.669Z,19.46
2018-11-03T09:43:40.656Z,19.44
2018-11-03T09:44:40.560Z,19.46
2018-11-03T09:45:40.512Z,19.46
2018-11-03T09:46:40.464Z,19.43
2018-11-03T09:47:40.419Z,19.41
2018-11-03T09:48:40.374Z,19.44
2018-11-03T09:49:40.322Z,19.47
2018-11-03T09:50:40.411Z,19.43
2018-11-03T09:51:40.227Z,19.46
2018-11-03T09:52:40.180Z,19.46
2018-11-03T09:53:40.133Z,19.56
2018-11-03T09:54:40.086Z,19.47
2018-11-03T09:55:40.043Z,19.46
2018-11-03T09:56:40.086Z,19.39
2018-11-03T09:57:39.943Z,19.46
2018-11-03T09:58:39.894Z,19.47
2018-11-03T09:59:39.848Z,19.48
2018-11-03T10:00:39.801Z,19.50
2018-11-03T10:01:39.754Z,19.46
2018-11-03T10:02:39.706Z,19.47
2018-11-03T10:03:39.679Z,19.48
2018-11-03T10:04:39.612Z,19.47
2018-11-03T10:05:39.565Z,19.50
2018-11-03T10:06:39.592Z,19.39
2018-11-03T10:07:39.469Z,19.48
2018-11-03T10:08:39.422Z,19.48
2018-11-03T10:09:39.379Z,19.47
2018-11-03T10:10:39.327Z,19.44
2018-11-03T10:11:39.305Z,19.51
2018-11-03T10:12:39.232Z,19.48
2018-11-03T10:13:39.188Z,19.51
2018-11-03T10:14:39.137Z,19.51
2018-11-03T10:15:39.109Z,19.51
2018-11-03T10:16:39.044Z,19.55
2018-11-03T10:17:38.996Z,19.55
2018-11-03T10:18:38.948Z,19.51
2018-11-03T10:19:38.917Z,19.51
2018-11-03T10:20:38.854Z,19.46
2018-11-03T10:21:38.807Z,19.47
2018-11-03T10:22:38.788Z,19.46
2018-11-03T10:23:38.712Z,19.54
2018-11-03T10:24:38.664Z,19.47
2018-11-03T10:25:38.617Z,19.56
2018-11-03T10:26:38.569Z,19.51
2018-11-03T10:27:38.522Z,19.46
2018-11-03T10:28:38.474Z,19.55
2018-11-03T10:29:38.427Z,19.55
2018-11-03T10:30:38.380Z,19.44
2018-11-03T10:31:38.332Z,19.51
2018-11-03T10:32:38.285Z,19.54
2018-11-03T10:33:38.352Z,19.48
2018-11-03T10:34:38.194Z,19.48
2018-11-03T10:35:38.143Z,19.51
2018-11-03T10:36:38.096Z,19.51
2018-11-03T10:37:38.055Z,19.54
2018-11-03T10:38:38.001Z,19.54
2018-11-03T10:39:37.973Z,19.50
2018-11-03T10:40:37.906Z,19.50
2018-11-03T10:41:37.892Z,19.54
2018-11-03T10:42:37.811Z,19.47
2018-11-03T10:43:37.764Z,19.48
2018-11-03T10:44:37.717Z,19.51
2018-11-03T10:45:37.670Z,19.44
2018-11-03T10:46:37.622Z,19.46
2018-11-03T10:47:37.622Z,19.48
2018-11-03T10:48:37.528Z,19.47
2018-11-03T10:49:37.481Z,19.51
2018-11-03T10:50:37.432Z,19.40
2018-11-03T10:51:37.385Z,19.50
2018-11-03T10:52:37.338Z,19.50
2018-11-03T10:53:37.337Z,19.47
2018-11-03T10:54:37.244Z,19.58
2018-11-03T10:55:37.196Z,19.47
2018-11-03T10:56:37.151Z,19.43
2018-11-03T10:57:37.133Z,19.56
2018-11-03T10:58:37.054Z,19.47
2018-11-03T10:59:37.006Z,19.54
2018-11-03T11:00:36.959Z,19.51
2018-11-03T11:01:36.912Z,19.43
2018-11-03T11:02:36.866Z,19.56
2018-11-03T11:03:36.837Z,19.46
2018-11-03T11:04:36.769Z,19.47
2018-11-03T11:05:36.723Z,19.51
2018-11-03T11:06:36.674Z,19.43
2018-11-03T11:07:36.627Z,19.48
2018-11-03T11:08:36.580Z,19.46
2018-11-03T11:09:36.536Z,19.54
2018-11-03T11:10:36.485Z,19.50
2018-11-03T11:11:36.437Z,19.48
2018-11-03T11:12:36.390Z,19.40
2018-11-03T11:13:36.343Z,19.55
2018-11-03T11:14:36.296Z,19.51
2018-11-03T11:15:36.252Z,19.44
2018-11-03T11:16:36.212Z,19.48
2018-11-03T11:17:36.154Z,19.41
2018-11-03T11:18:36.106Z,19.59
2018-11-03T11:19:36.059Z,19.54
2018-11-03T11:20:36.054Z,19.47
2018-11-03T11:21:35.965Z,19.41
2018-11-03T11:22:35.917Z,19.41
2018-11-03T11:23:36.005Z,19.46
2018-11-03T11:24:35.867Z,19.44
2018-11-03T11:25:35.775Z,19.46
2018-11-03T11:26:35.727Z,19.43
2018-11-03T11:27:35.679Z,19.48
2018-11-03T11:28:35.633Z,19.50
2018-11-03T11:29:35.586Z,19.50
2018-11-03T11:30:35.536Z,19.50
2018-11-03T11:31:35.641Z,19.48
2018-11-03T11:32:35.490Z,19.50
2018-11-03T11:33:35.397Z,19.48
2018-11-03T11:34:35.350Z,19.48
2018-11-03T11:35:35.302Z,19.48
2018-11-03T11:36:35.253Z,19.47
2018-11-03T11:37:35.328Z,19.48
2018-11-03T11:38:35.217Z,19.50
2018-11-03T11:39:35.111Z,19.48
2018-11-03T11:40:35.064Z,19.46
2018-11-03T11:41:35.017Z,19.51
2018-11-03T11:42:34.969Z,19.50
2018-11-03T11:43:34.922Z,19.43
2018-11-03T11:44:34.874Z,19.50
2018-11-03T11:45:34.828Z,19.51
2018-11-03T11:46:34.782Z,19.39
2018-11-03T11:47:34.732Z,19.48
2018-11-03T11:48:34.684Z,19.43
2018-11-03T11:49:34.637Z,19.48
2018-11-03T11:50:34.589Z,19.41
2018-11-03T11:51:34.542Z,19.41
2018-11-03T11:52:34.498Z,19.48
2018-11-03T11:53:34.548Z,19.50
2018-11-03T11:54:34.400Z,19.47
2018-11-03T11:55:34.352Z,19.47
2018-11-03T11:56:34.305Z,19.44
2018-11-03T11:57:34.258Z,19.50
2018-11-03T11:58:34.210Z,19.47
2018-11-03T11:59:34.163Z,19.55
2018-11-03T12:00:34.129Z,19.50
2018-11-03T12:01:34.070Z,19.55
2018-11-03T12:02:34.237Z,19.41
2018-11-03T12:03:33.974Z,19.46
2018-11-03T12:04:33.926Z,19.41
2018-11-03T12:05:33.880Z,19.55
2018-11-03T12:06:33.838Z,19.47
2018-11-03T12:07:33.811Z,19.55
2018-11-03T12:08:33.736Z,19.51
2018-11-03T12:09:33.740Z,19.46
2018-11-03T12:10:33.643Z,19.47
2018-11-03T12:11:33.594Z,19.48
2018-11-03T12:12:33.547Z,19.54
2018-11-03T12:13:33.535Z,19.48
2018-11-03T12:14:33.451Z,19.48
2018-11-03T12:15:33.404Z,19.47
2018-11-03T12:16:33.357Z,19.44
2018-11-03T12:17:33.310Z,19.47
2018-11-03T12:18:33.262Z,19.50
2018-11-03T12:19:33.215Z,19.48
2018-11-03T12:20:33.168Z,19.48
2018-11-03T12:21:33.121Z,19.48
2018-11-03T12:22:33.072Z,19.54
2018-11-03T12:23:33.026Z,19.56
2018-11-03T12:24:32.977Z,19.48
2018-11-03T12:25:32.992Z,19.48
2018-11-03T12:26:32.882Z,19.47
2018-11-03T12:27:32.835Z,19.48
2018-11-03T12:28:32.788Z,19.51
2018-11-03T12:29:32.741Z,19.48
2018-11-03T12:30:32.696Z,19.54
2018-11-03T12:31:32.646Z,19.48
2018-11-03T12:32:32.599Z,19.47
2018-11-03T12:33:32.555Z,19.47
2018-11-03T12:34:32.503Z,19.50
2018-11-03T12:35:32.456Z,19.46
2018-11-03T12:36:32.409Z,19.48
2018-11-03T12:37:32.362Z,19.46
2018-11-03T12:38:32.313Z,19.47
2018-11-03T12:39:32.266Z,19.56
2018-11-03T12:40:32.252Z,19.56
2018-11-03T12:41:32.207Z,19.50
2018-11-03T12:42:32.124Z,19.50
2018-11-03T12:43:32.077Z,19.48
2018-11-03T12:44:32.029Z,19.48
2018-11-03T12:45:31.982Z,19.46
2018-11-03T12:46:31.934Z,19.50
2018-11-03T12:47:31.887Z,19.44
2018-11-03T12:48:31.840Z,19.46
2018-11-03T12:49:31.795Z,19.50
2018-11-03T12:50:31.840Z,19.46
2018-11-03T12:51:31.696Z,19.47